Aktoras — V7KH8 — position and weather

sailwx.info

Track history (hours):
 
Tides and Currents Weather Stations Pressure Air Temp Water Temp Dewpoint Dewpoint Depression Visibility Wind Speed Wind Dir Waves Ship Positions

Aktoras

Last reported at 2018-Aug-11 02:34 UTC. Time now 2018-Aug-14 23:42 UTC.
Position S 30°05' E 031°14'.

Length 185 m; draft 9.7 m.

Type: Tanker. MMSI: 538002620.

Date/timePositionNaut miles runAvg speedWind from/ knotsBaromVisibWave heightAir tempDewpointWater temp
2018-Aug-11 02:34S 30°05' E 031°14'111.0
2018-Aug-11 02:29S 30°04' E 031°14'511.1
2018-Aug-11 02:00S 29°59' E 031°13'611.8
2018-Aug-11 01:30S 29°54' E 031°10'510.7
2018-Aug-11 01:00S 29°51' E 031°05'4 8.0
2018-Aug-11 00:30S 29°53' E 031°02'0 0.1
2018-Aug-10 23:57S 29°53' E 031°02'0 0.0
2018-Aug-10 23:27S 29°53' E 031°02'0 0.0
2018-Aug-10 22:57S 29°53' E 031°02'0 0.0
2018-Aug-10 22:27S 29°53' E 031°02'0 0.0
2018-Aug-10 21:57S 29°53' E 031°02'0 0.0
2018-Aug-10 21:27S 29°53' E 031°02'0 0.0
2018-Aug-10 20:57S 29°53' E 031°02'0 0.0
2018-Aug-10 20:27S 29°53' E 031°02'0 0.0
2018-Aug-10 19:57S 29°53' E 031°02'0 0.0
2018-Aug-10 19:27S 29°53' E 031°02'0 0.0
2018-Aug-10 18:57S 29°53' E 031°02'0 0.0
2018-Aug-10 18:27S 29°53' E 031°02'0 0.0
2018-Aug-10 17:51S 29°53' E 031°02'0 0.0
2018-Aug-10 17:27S 29°53' E 031°02'  
2018-Aug-07 07:30S 29°53' E 031°02'0 0.0
2018-Aug-07 07:00S 29°53' E 031°02'0 0.0
2018-Aug-07 06:30S 29°53' E 031°02'0 0.0
2018-Aug-07 06:01S 29°53' E 031°02'1 2.1
2018-Aug-07 05:31S 29°53' E 031°03'5 9.3
2018-Aug-07 05:00S 29°49' E 031°06'3 5.0
2018-Aug-07 04:30S 29°47' E 031°07'1 1.1
2018-Aug-07 04:01S 29°46' E 031°07'0 0.2
2018-Aug-07 03:27S 29°46' E 031°07'0 0.0
2018-Aug-07 03:00S 29°46' E 031°07'0 0.0
2018-Aug-07 02:27S 29°46' E 031°07'0 0.0
2018-Aug-07 01:57S 29°46' E 031°07'0 0.0
2018-Aug-07 01:27S 29°46' E 031°07'0 0.1
2018-Aug-07 01:00S 29°46' E 031°07'0 0.1
2018-Aug-07 00:28S 29°46' E 031°07'0 0.0
2018-Aug-07 00:00S 29°46' E 031°07'0 0.0
2018-Aug-06 23:26S 29°46' E 031°07'0 0.0
2018-Aug-06 22:56S 29°46' E 031°07'0 0.0
2018-Aug-06 22:26S 29°46' E 031°07'0 0.0
2018-Aug-06 15:25S 29°46' E 031°07'0 0.0
2018-Aug-06 15:00S 29°46' E 031°07'0 0.1
2018-Aug-06 14:26S 29°46' E 031°07'0 0.0
2018-Aug-06 14:00S 29°46' E 031°07'0 0.1
2018-Aug-06 13:30S 29°46' E 031°07'0 0.1
2018-Aug-06 13:00S 29°46' E 031°07'0 0.1
2018-Aug-06 12:25S 29°46' E 031°07'0 0.0
2018-Aug-06 11:55S 29°46' E 031°07'0 0.0
2018-Aug-06 11:25S 29°46' E 031°07'0 0.1
2018-Aug-06 10:55S 29°46' E 031°07'0 0.0
2018-Aug-06 10:25S 29°46' E 031°07'0 0.0
2018-Aug-06 09:55S 29°46' E 031°07'0 0.0
2018-Aug-06 09:25S 29°46' E 031°07'0 0.0
2018-Aug-06 08:55S 29°46' E 031°07'0 0.1
2018-Aug-06 07:19S 29°46' E 031°07'0 0.1
2018-Aug-06 06:55S 29°46' E 031°07'0 0.0
2018-Aug-06 06:25S 29°46' E 031°07'0 0.1
2018-Aug-06 05:55S 29°46' E 031°07'0 0.1
2018-Aug-06 05:25S 29°46' E 031°07'0 0.1
2018-Aug-06 04:55S 29°46' E 031°07'0 0.0
2018-Aug-06 04:25S 29°46' E 031°07'0 0.0
2018-Aug-06 03:55S 29°46' E 031°07'0 0.0
2018-Aug-06 03:25S 29°46' E 031°07'0 0.0
2018-Aug-06 02:55S 29°46' E 031°07'0 0.0
2018-Aug-06 02:25S 29°46' E 031°07'0 0.0
2018-Aug-06 01:55S 29°46' E 031°07'0 0.0
2018-Aug-06 01:25S 29°46' E 031°07'0 0.0
2018-Aug-06 00:55S 29°46' E 031°07'0 0.0
2018-Aug-06 00:25S 29°46' E 031°07'0 0.1
2018-Aug-05 23:55S 29°46' E 031°07'0 0.0
2018-Aug-05 23:25S 29°46' E 031°07'0 0.1
2018-Aug-05 22:55S 29°46' E 031°07'0 0.0
2018-Aug-05 22:25S 29°46' E 031°07'0 0.0
2018-Aug-05 21:55S 29°46' E 031°07'0 0.0
2018-Aug-05 21:19S 29°46' E 031°07'0 0.4
2018-Aug-05 21:00S 29°46' E 031°07'4 7.1
2018-Aug-05 20:30S 29°49' E 031°10'1 2.3
2018-Aug-05 20:00S 29°49' E 031°11'0 0.6
2018-Aug-05 19:30S 29°49' E 031°11'0 0.9
2018-Aug-05 19:00S 29°49' E 031°11'0 0.9
2018-Aug-05 18:30S 29°49' E 031°10'0 0.5
2018-Aug-05 18:00S 29°49' E 031°10'0 0.1
2018-Aug-05 17:30S 29°49' E 031°10'0 0.4
2018-Aug-05 17:00S 29°49' E 031°10'0 0.8
2018-Aug-05 16:30S 29°49' E 031°09'0 0.7
2018-Aug-05 16:00S 29°49' E 031°09'0 0.8
2018-Aug-05 15:30S 29°48' E 031°09'1 1.2
2018-Aug-05 15:00S 29°48' E 031°09'3 6.9
2018-Aug-05 14:30S 29°45' E 031°12'1312.7
2018-Aug-05 13:30S 29°38' E 031°24'713.0
2018-Aug-05 13:00S 29°34' E 031°30'612.8
2018-Aug-05 12:30S 29°30' E 031°36'  
2018-Aug-02 22:19S 29°51' E 031°41'3 9.0
2018-Aug-02 22:00S 29°53' E 031°39'7 9.5
2018-Aug-02 21:17S 29°59' E 031°34'4 9.7
2018-Aug-02 20:55S 30°01' E 031°32'4 9.6
2018-Aug-02 20:31S 30°05' E 031°30'  
Track history (hours):
 
Tides and Currents Weather Stations Pressure Air Temp Water Temp Dewpoint Dewpoint Depression Visibility Wind Speed Wind Dir Waves Ship Positions

Aktoras

Last reported at 2018-Aug-11 02:34 UTC. Time now 2018-Aug-14 23:42 UTC.
Position S 30°05' E 031°14'.

Length 185 m; draft 9.7 m.

Type: Tanker. MMSI: 538002620.

Date/timePositionNaut miles runAvg speedWind from/ knotsBaromVisibWave heightAir tempDewpointWater temp
2018-Aug-11 02:34S 30°05' E 031°14'111.0
2018-Aug-11 02:29S 30°04' E 031°14'511.1
2018-Aug-11 02:00S 29°59' E 031°13'611.8
2018-Aug-11 01:30S 29°54' E 031°10'510.7
2018-Aug-11 01:00S 29°51' E 031°05'4 8.0
2018-Aug-11 00:30S 29°53' E 031°02'0 0.1
2018-Aug-10 23:57S 29°53' E 031°02'0 0.0
2018-Aug-10 23:27S 29°53' E 031°02'0 0.0
2018-Aug-10 22:57S 29°53' E 031°02'0 0.0
2018-Aug-10 22:27S 29°53' E 031°02'0 0.0
2018-Aug-10 21:57S 29°53' E 031°02'0 0.0
2018-Aug-10 21:27S 29°53' E 031°02'0 0.0
2018-Aug-10 20:57S 29°53' E 031°02'0 0.0
2018-Aug-10 20:27S 29°53' E 031°02'0 0.0
2018-Aug-10 19:57S 29°53' E 031°02'0 0.0
2018-Aug-10 19:27S 29°53' E 031°02'0 0.0
2018-Aug-10 18:57S 29°53' E 031°02'0 0.0
2018-Aug-10 18:27S 29°53' E 031°02'0 0.0
2018-Aug-10 17:51S 29°53' E 031°02'0 0.0
2018-Aug-10 17:27S 29°53' E 031°02'  
2018-Aug-07 07:30S 29°53' E 031°02'0 0.0
2018-Aug-07 07:00S 29°53' E 031°02'0 0.0
2018-Aug-07 06:30S 29°53' E 031°02'0 0.0
2018-Aug-07 06:01S 29°53' E 031°02'1 2.1
2018-Aug-07 05:31S 29°53' E 031°03'5 9.3
2018-Aug-07 05:00S 29°49' E 031°06'3 5.0
2018-Aug-07 04:30S 29°47' E 031°07'1 1.1
2018-Aug-07 04:01S 29°46' E 031°07'0 0.2
2018-Aug-07 03:27S 29°46' E 031°07'0 0.0
2018-Aug-07 03:00S 29°46' E 031°07'0 0.0
2018-Aug-07 02:27S 29°46' E 031°07'0 0.0
2018-Aug-07 01:57S 29°46' E 031°07'0 0.0
2018-Aug-07 01:27S 29°46' E 031°07'0 0.1
2018-Aug-07 01:00S 29°46' E 031°07'0 0.1
2018-Aug-07 00:28S 29°46' E 031°07'0 0.0
2018-Aug-07 00:00S 29°46' E 031°07'0 0.0
2018-Aug-06 23:26S 29°46' E 031°07'0 0.0
2018-Aug-06 22:56S 29°46' E 031°07'0 0.0
2018-Aug-06 22:26S 29°46' E 031°07'0 0.0
2018-Aug-06 15:25S 29°46' E 031°07'0 0.0
2018-Aug-06 15:00S 29°46' E 031°07'0 0.1
2018-Aug-06 14:26S 29°46' E 031°07'0 0.0
2018-Aug-06 14:00S 29°46' E 031°07'0 0.1
2018-Aug-06 13:30S 29°46' E 031°07'0 0.1
2018-Aug-06 13:00S 29°46' E 031°07'0 0.1
2018-Aug-06 12:25S 29°46' E 031°07'0 0.0
2018-Aug-06 11:55S 29°46' E 031°07'0 0.0
2018-Aug-06 11:25S 29°46' E 031°07'0 0.1
2018-Aug-06 10:55S 29°46' E 031°07'0 0.0
2018-Aug-06 10:25S 29°46' E 031°07'0 0.0
2018-Aug-06 09:55S 29°46' E 031°07'0 0.0
2018-Aug-06 09:25S 29°46' E 031°07'0 0.0
2018-Aug-06 08:55S 29°46' E 031°07'0 0.1
2018-Aug-06 07:19S 29°46' E 031°07'0 0.1
2018-Aug-06 06:55S 29°46' E 031°07'0 0.0
2018-Aug-06 06:25S 29°46' E 031°07'0 0.1
2018-Aug-06 05:55S 29°46' E 031°07'0 0.1
2018-Aug-06 05:25S 29°46' E 031°07'0 0.1
2018-Aug-06 04:55S 29°46' E 031°07'0 0.0
2018-Aug-06 04:25S 29°46' E 031°07'0 0.0
2018-Aug-06 03:55S 29°46' E 031°07'0 0.0
2018-Aug-06 03:25S 29°46' E 031°07'0 0.0
2018-Aug-06 02:55S 29°46' E 031°07'0 0.0
2018-Aug-06 02:25S 29°46' E 031°07'0 0.0
2018-Aug-06 01:55S 29°46' E 031°07'0 0.0
2018-Aug-06 01:25S 29°46' E 031°07'0 0.0
2018-Aug-06 00:55S 29°46' E 031°07'0 0.0
2018-Aug-06 00:25S 29°46' E 031°07'0 0.1
2018-Aug-05 23:55S 29°46' E 031°07'0 0.0
2018-Aug-05 23:25S 29°46' E 031°07'0 0.1
2018-Aug-05 22:55S 29°46' E 031°07'0 0.0
2018-Aug-05 22:25S 29°46' E 031°07'0 0.0
2018-Aug-05 21:55S 29°46' E 031°07'0 0.0
2018-Aug-05 21:19S 29°46' E 031°07'0 0.4
2018-Aug-05 21:00S 29°46' E 031°07'4 7.1
2018-Aug-05 20:30S 29°49' E 031°10'1 2.3
2018-Aug-05 20:00S 29°49' E 031°11'0 0.6
2018-Aug-05 19:30S 29°49' E 031°11'0 0.9
2018-Aug-05 19:00S 29°49' E 031°11'0 0.9
2018-Aug-05 18:30S 29°49' E 031°10'0 0.5
2018-Aug-05 18:00S 29°49' E 031°10'0 0.1
2018-Aug-05 17:30S 29°49' E 031°10'0 0.4
2018-Aug-05 17:00S 29°49' E 031°10'0 0.8
2018-Aug-05 16:30S 29°49' E 031°09'0 0.7
2018-Aug-05 16:00S 29°49' E 031°09'0 0.8
2018-Aug-05 15:30S 29°48' E 031°09'1 1.2
2018-Aug-05 15:00S 29°48' E 031°09'3 6.9
2018-Aug-05 14:30S 29°45' E 031°12'1312.7
2018-Aug-05 13:30S 29°38' E 031°24'713.0
2018-Aug-05 13:00S 29°34' E 031°30'612.8
2018-Aug-05 12:30S 29°30' E 031°36'  
2018-Aug-02 22:19S 29°51' E 031°41'3 9.0
2018-Aug-02 22:00S 29°53' E 031°39'7 9.5
2018-Aug-02 21:17S 29°59' E 031°34'4 9.7
2018-Aug-02 20:55S 30°01' E 031°32'4 9.6
2018-Aug-02 20:31S 30°05' E 031°30'  

Dump ship's entire track history